createdAt,value
2022-09-11T00:02:02.594Z,98300.00
2022-09-11T00:05:01.262Z,98304.00
2022-09-11T00:07:36.919Z,98308.00
2022-09-11T00:10:17.976Z,98307.00
2022-09-11T00:12:53.569Z,98294.00
2022-09-11T00:15:29.043Z,98294.00
2022-09-11T00:18:06.141Z,98288.00
2022-09-11T00:20:51.237Z,98287.00
2022-09-11T00:23:31.113Z,98299.00
2022-09-11T00:26:07.845Z,98294.00
2022-09-11T00:28:42.556Z,98288.00
2022-09-11T00:31:21.688Z,98286.00
2022-09-11T00:33:57.204Z,98287.00
2022-09-11T00:36:35.232Z,98278.00
2022-09-11T00:39:16.890Z,98297.00
2022-09-11T00:41:52.714Z,98287.00
2022-09-11T00:45:04.003Z,98288.00
2022-09-11T00:47:41.439Z,98288.00
2022-09-11T00:50:21.921Z,98284.00
2022-09-11T00:53:28.436Z,98281.00
2022-09-11T00:56:09.991Z,98265.00
2022-09-11T00:58:55.663Z,98265.00
2022-09-11T01:01:32.834Z,98260.00
2022-09-11T01:04:17.787Z,98264.00
2022-09-11T01:06:55.940Z,98264.00
2022-09-11T01:09:37.636Z,98260.00
2022-09-11T01:12:21.306Z,98249.00
2022-09-11T01:15:02.793Z,98253.00
2022-09-11T01:17:52.632Z,98268.00
2022-09-11T01:20:59.874Z,98253.00
2022-09-11T01:24:03.408Z,98253.00
2022-09-11T01:26:55.712Z,98267.00
2022-09-11T01:29:40.789Z,98236.00
2022-09-11T01:32:25.497Z,98261.00
2022-09-11T01:35:06.599Z,98247.00
2022-09-11T01:37:48.250Z,98250.00
2022-09-11T01:40:28.933Z,98248.00
2022-09-11T01:43:09.974Z,98254.00
2022-09-11T01:45:49.562Z,98255.00
2022-09-11T01:48:28.749Z,98249.00
2022-09-11T01:51:09.887Z,98241.00
2022-09-11T01:53:50.325Z,98250.00
2022-09-11T01:56:31.023Z,98257.00
2022-09-11T01:59:08.386Z,98273.00
2022-09-11T02:01:51.438Z,98262.00
2022-09-11T02:04:29.876Z,98278.00
2022-09-11T02:07:10.063Z,98264.00
2022-09-11T02:09:53.832Z,98265.00
2022-09-11T02:12:42.180Z,98264.00
2022-09-11T02:15:19.245Z,98258.00
2022-09-11T02:18:02.188Z,98261.00
2022-09-11T02:20:37.658Z,98268.00
2022-09-11T02:23:12.269Z,98278.00
2022-09-11T02:25:48.301Z,98274.00
2022-09-11T02:28:25.729Z,98291.00
2022-09-11T02:31:06.498Z,98265.00
2022-09-11T02:34:00.860Z,98287.00
2022-09-11T02:37:07.982Z,98285.00
2022-09-11T02:40:29.744Z,98288.00
2022-09-11T02:43:40.249Z,98284.00
2022-09-11T02:46:44.471Z,98291.00
2022-09-11T02:49:34.347Z,98298.00
2022-09-11T02:52:21.233Z,98284.00
2022-09-11T02:55:07.065Z,98275.00
2022-09-11T02:57:51.988Z,98285.00
2022-09-11T03:00:26.874Z,98297.00
2022-09-11T03:03:01.907Z,98300.00
2022-09-11T03:05:40.400Z,98298.00
2022-09-11T03:08:17.471Z,98284.00
2022-09-11T03:10:55.076Z,98280.00
2022-09-11T03:13:36.777Z,98309.00
2022-09-11T03:16:24.883Z,98299.00
2022-09-11T03:18:59.822Z,98293.00
2022-09-11T03:21:37.720Z,98302.00
2022-09-11T03:24:13.554Z,98304.00
2022-09-11T03:26:48.904Z,98286.00
2022-09-11T03:29:29.519Z,98288.00
2022-09-11T03:32:05.128Z,98296.00
2022-09-11T03:34:46.384Z,98287.00
2022-09-11T03:37:27.190Z,98293.00
2022-09-11T03:40:09.918Z,98295.00
2022-09-11T03:42:46.218Z,98298.00
2022-09-11T03:45:21.779Z,98306.00
2022-09-11T03:47:57.176Z,98302.00
2022-09-11T03:50:32.387Z,98290.00
2022-09-11T03:53:11.833Z,98298.00
2022-09-11T03:55:47.652Z,98315.00
2022-09-11T03:58:23.488Z,98302.00
2022-09-11T04:00:59.881Z,98294.00
2022-09-11T04:03:38.051Z,98312.00
2022-09-11T04:06:15.443Z,98313.00
2022-09-11T04:08:51.798Z,98314.00
2022-09-11T04:11:32.365Z,98320.00
2022-09-11T04:14:10.839Z,98321.00
2022-09-11T04:16:48.976Z,98301.00
2022-09-11T04:19:29.793Z,98304.00
2022-09-11T04:22:06.849Z,98311.00
2022-09-11T04:24:58.313Z,98309.00
2022-09-11T04:27:35.219Z,98313.00
2022-09-11T04:30:11.843Z,98315.00
2022-09-11T04:32:46.848Z,98306.00
2022-09-11T04:35:22.071Z,98317.00
2022-09-11T04:38:02.899Z,98314.00
2022-09-11T04:40:46.887Z,98322.00
2022-09-11T04:43:22.274Z,98313.00
2022-09-11T04:46:08.628Z,98330.00
2022-09-11T04:48:47.070Z,98316.00
2022-09-11T04:51:25.271Z,98316.00
2022-09-11T04:54:06.897Z,98320.00
2022-09-11T04:56:49.031Z,98328.00
2022-09-11T04:59:29.562Z,98343.00
2022-09-11T05:02:05.700Z,98331.00
2022-09-11T05:04:40.262Z,98341.00
2022-09-11T05:07:15.673Z,98353.00
2022-09-11T05:09:51.179Z,98352.00
2022-09-11T05:15:18.454Z,98365.00
2022-09-11T05:17:55.273Z,98350.00
2022-09-11T05:20:31.400Z,98362.00
2022-09-11T05:23:13.186Z,98364.00
2022-09-11T05:25:59.387Z,98373.00
2022-09-11T05:28:36.872Z,98360.00
2022-09-11T05:31:15.417Z,98357.00
2022-09-11T05:36:41.634Z,98372.00
2022-09-11T05:39:22.005Z,98371.00
2022-09-11T05:41:59.843Z,98391.00
2022-09-11T05:44:37.615Z,98386.00
2022-09-11T05:47:13.468Z,98380.00
2022-09-11T05:49:48.372Z,98377.00
2022-09-11T05:52:24.452Z,98382.00
2022-09-11T05:54:59.060Z,98394.00
2022-09-11T05:57:34.929Z,98388.00
2022-09-11T06:00:19.592Z,98422.00
2022-09-11T06:02:56.506Z,98404.00
2022-09-11T06:05:32.959Z,98408.00
2022-09-11T06:08:11.304Z,98410.00
2022-09-11T06:10:52.934Z,98418.00
2022-09-11T06:13:34.483Z,98417.00
2022-09-11T06:16:17.776Z,98418.00
2022-09-11T06:18:55.040Z,98419.00
2022-09-11T06:21:30.525Z,98420.00
2022-09-11T06:24:07.755Z,98425.00
2022-09-11T06:26:46.562Z,98429.00
2022-09-11T06:29:22.408Z,98441.00
2022-09-11T06:32:09.760Z,98439.00
2022-09-11T06:34:48.146Z,98433.00
2022-09-11T06:37:23.963Z,98435.00
2022-09-11T06:39:59.493Z,98425.00
2022-09-11T06:42:41.636Z,98444.00
2022-09-11T06:48:20.916Z,98451.00
2022-09-11T06:50:56.307Z,98458.00
2022-09-11T06:53:35.581Z,98453.00
2022-09-11T06:56:15.364Z,98452.00
2022-09-11T06:58:51.816Z,98447.00
2022-09-11T07:01:29.597Z,98471.00
2022-09-11T07:04:23.528Z,98471.00
2022-09-11T07:06:59.196Z,98457.00
2022-09-11T07:09:38.747Z,98450.00
2022-09-11T07:12:14.120Z,98449.00
2022-09-11T07:14:48.994Z,98450.00
2022-09-11T07:17:24.982Z,98447.00
2022-09-11T07:20:18.226Z,98463.00
2022-09-11T07:22:58.824Z,98474.00
2022-09-11T07:25:47.423Z,98465.00
2022-09-11T07:28:27.978Z,98446.00
2022-09-11T07:31:14.505Z,98459.00
2022-09-11T07:33:54.894Z,98453.00
2022-09-11T07:36:52.192Z,98467.00
2022-09-11T07:39:28.370Z,98464.00
2022-09-11T07:42:12.972Z,98476.00
2022-09-11T07:44:51.956Z,98474.00
2022-09-11T07:47:27.727Z,98480.00
2022-09-11T07:50:04.612Z,98477.00
2022-09-11T07:52:41.068Z,98495.00
2022-09-11T07:55:19.599Z,98486.00
2022-09-11T07:57:56.863Z,98484.00
2022-09-11T08:00:36.497Z,98484.00
2022-09-11T08:03:11.864Z,98471.00
2022-09-11T08:05:51.640Z,98490.00
2022-09-11T08:08:29.492Z,98493.00
2022-09-11T08:11:12.228Z,98505.00
2022-09-11T08:13:53.589Z,98495.00
2022-09-11T08:16:30.709Z,98502.00
2022-09-11T08:19:06.360Z,98500.00
2022-09-11T08:21:41.601Z,98501.00
2022-09-11T08:24:22.365Z,98510.00
2022-09-11T08:27:00.499Z,98509.00
2022-09-11T08:29:47.629Z,98511.00
2022-09-11T08:32:28.575Z,98523.00
2022-09-11T08:35:17.168Z,98513.00
2022-09-11T08:37:54.819Z,98519.00
2022-09-11T08:40:40.473Z,98508.00
2022-09-11T08:43:24.903Z,98514.00
2022-09-11T08:46:06.436Z,98526.00
2022-09-11T08:48:52.261Z,98512.00
2022-09-11T08:51:37.272Z,98527.00
2022-09-11T08:54:36.698Z,98510.00
2022-09-11T08:57:21.325Z,98505.00
2022-09-11T09:00:27.175Z,98523.00
2022-09-11T09:03:32.762Z,98518.00
2022-09-11T09:06:44.573Z,98521.00
2022-09-11T09:09:34.788Z,98521.00
2022-09-11T09:12:21.080Z,98524.00
2022-09-11T09:15:29.550Z,98526.00
2022-09-11T09:18:11.902Z,98518.00
2022-09-11T09:20:54.778Z,98524.00
2022-09-11T09:23:36.918Z,98529.00
2022-09-11T09:26:19.243Z,98535.00
2022-09-11T09:29:02.117Z,98530.00
2022-09-11T09:31:41.592Z,98521.00
2022-09-11T09:34:27.107Z,98537.00
2022-09-11T09:37:12.016Z,98521.00
2022-09-11T09:40:05.323Z,98522.00
2022-09-11T09:43:12.419Z,98536.00
2022-09-11T09:46:18.245Z,98522.00
2022-09-11T09:48:53.613Z,98514.00
2022-09-11T09:51:29.435Z,98534.00
2022-09-11T09:54:04.187Z,98526.00
2022-09-11T09:56:43.700Z,98519.00
2022-09-11T09:59:38.833Z,98540.00
2022-09-11T10:02:15.614Z,98538.00
2022-09-11T10:05:27.940Z,98530.00
2022-09-11T10:08:08.490Z,98525.00
2022-09-11T10:11:04.886Z,98517.00
2022-09-11T10:13:42.662Z,98518.00
2022-09-11T10:16:24.008Z,98522.00
2022-09-11T10:19:00.937Z,98517.00
2022-09-11T10:21:54.686Z,98509.00
2022-09-11T10:24:38.351Z,98518.00
2022-09-11T10:27:16.768Z,98506.00
2022-09-11T10:30:08.498Z,98508.00
2022-09-11T10:32:45.479Z,98515.00
2022-09-11T10:35:28.399Z,98498.00
2022-09-11T10:38:18.199Z,98524.00
2022-09-11T10:41:12.120Z,98508.00
2022-09-11T10:43:59.441Z,98512.00
2022-09-11T10:46:41.097Z,98519.00
2022-09-11T10:49:25.148Z,98534.00
2022-09-11T10:52:05.500Z,98526.00
2022-09-11T10:54:53.634Z,98519.00
2022-09-11T10:57:33.714Z,98524.00
2022-09-11T11:00:21.125Z,98520.00
2022-09-11T11:03:01.305Z,98526.00
2022-09-11T11:05:49.050Z,98520.00
2022-09-11T11:09:00.857Z,98518.00
2022-09-11T11:11:56.110Z,98516.00
2022-09-11T11:15:01.214Z,98511.00
2022-09-11T11:17:47.464Z,98518.00
2022-09-11T11:20:45.985Z,98513.00
2022-09-11T11:23:53.004Z,98517.00
2022-09-11T11:26:46.370Z,98520.00
2022-09-11T11:29:42.051Z,98521.00
2022-09-11T11:32:39.493Z,98521.00
2022-09-11T11:35:23.873Z,98522.00
2022-09-11T11:38:08.506Z,98528.00
2022-09-11T11:40:53.945Z,98516.00
2022-09-11T11:43:34.217Z,98527.00
2022-09-11T11:46:16.026Z,98523.00
2022-09-11T11:48:57.872Z,98520.00
2022-09-11T11:51:49.669Z,98519.00
2022-09-11T11:54:34.417Z,98527.00
2022-09-11T11:57:24.704Z,98526.00
2022-09-11T12:00:12.023Z,98516.00
2022-09-11T12:02:53.877Z,98526.00
2022-09-11T12:05:32.469Z,98509.00
2022-09-11T12:08:16.861Z,98500.00
2022-09-11T12:11:01.525Z,98515.00
2022-09-11T12:13:44.868Z,98514.00
2022-09-11T12:16:32.697Z,98520.00
2022-09-11T12:19:15.827Z,98528.00
2022-09-11T12:22:35.135Z,98517.00
2022-09-11T12:25:54.057Z,98516.00
2022-09-11T12:28:41.349Z,98506.00
2022-09-11T12:31:20.024Z,98516.00
2022-09-11T12:33:57.199Z,98510.00
2022-09-11T12:36:51.354Z,98508.00
2022-09-11T12:39:36.131Z,98522.00
2022-09-11T12:42:58.733Z,98506.00
2022-09-11T12:45:37.118Z,98511.00
2022-09-11T12:48:34.004Z,98513.00
2022-09-11T12:51:25.141Z,98506.00
2022-09-11T12:54:15.310Z,98493.00
2022-09-11T12:57:01.549Z,98507.00
2022-09-11T12:59:40.556Z,98512.00
2022-09-11T13:05:27.516Z,98494.00
2022-09-11T13:08:08.139Z,98489.00
2022-09-11T13:10:45.490Z,98498.00
2022-09-11T13:13:57.263Z,98498.00
2022-09-11T13:16:45.564Z,98492.00
2022-09-11T13:25:20.060Z,98498.00
2022-09-11T13:28:08.331Z,98484.00
2022-09-11T13:30:55.510Z,98499.00
2022-09-11T13:33:45.676Z,98490.00
2022-09-11T13:36:26.045Z,98486.00
2022-09-11T13:39:06.102Z,98491.00
2022-09-11T13:41:48.105Z,98490.00
2022-09-11T13:44:40.161Z,98485.00
2022-09-11T13:47:21.465Z,98484.00
2022-09-11T13:50:00.863Z,98486.00
2022-09-11T13:52:37.789Z,98486.00
2022-09-11T13:55:27.685Z,98484.00
2022-09-11T13:58:25.518Z,98479.00
2022-09-11T14:01:12.814Z,98478.00
2022-09-11T14:06:48.438Z,98472.00
2022-09-11T14:09:30.952Z,98469.00
2022-09-11T14:12:15.999Z,98472.00
2022-09-11T14:14:56.086Z,98475.00
2022-09-11T14:17:45.432Z,98456.00
2022-09-11T14:20:23.293Z,98456.00
2022-09-11T14:23:03.453Z,98465.00
2022-09-11T14:25:40.554Z,98467.00
2022-09-11T14:29:02.798Z,98458.00
2022-09-11T14:31:58.817Z,98452.00
2022-09-11T14:34:36.820Z,98454.00
2022-09-11T14:37:13.735Z,98444.00
2022-09-11T14:39:55.385Z,98451.00
2022-09-11T14:42:36.538Z,98468.00
2022-09-11T14:45:33.751Z,98451.00
2022-09-11T14:48:14.840Z,98444.00
2022-09-11T14:51:03.445Z,98446.00
2022-09-11T14:53:37.866Z,98440.00
2022-09-11T14:56:12.608Z,98455.00
2022-09-11T14:59:09.752Z,98453.00
2022-09-11T15:01:48.134Z,98440.00
2022-09-11T15:04:25.867Z,98442.00
2022-09-11T15:07:06.915Z,98442.00
2022-09-11T15:09:42.459Z,98443.00
2022-09-11T15:12:21.682Z,98440.00
2022-09-11T15:15:19.813Z,98430.00
2022-09-11T15:17:59.876Z,98437.00
2022-09-11T15:21:02.115Z,98422.00
2022-09-11T15:24:07.832Z,98413.00
2022-09-11T15:26:42.640Z,98423.00
2022-09-11T15:29:18.481Z,98420.00
2022-09-11T15:31:54.615Z,98414.00
2022-09-11T15:34:33.364Z,98425.00
2022-09-11T15:37:09.826Z,98412.00
2022-09-11T15:39:49.608Z,98425.00
2022-09-11T15:42:39.786Z,98422.00
2022-09-11T15:45:17.965Z,98425.00
2022-09-11T15:47:55.521Z,98411.00
2022-09-11T15:50:39.444Z,98419.00
2022-09-11T15:53:17.812Z,98420.00
2022-09-11T15:56:04.912Z,98425.00
2022-09-11T15:58:58.773Z,98417.00
2022-09-11T16:01:39.606Z,98406.00
2022-09-11T16:04:20.818Z,98405.00
2022-09-11T16:07:01.665Z,98415.00
2022-09-11T16:09:36.752Z,98405.00
2022-09-11T16:12:12.422Z,98408.00
2022-09-11T16:14:48.578Z,98408.00
2022-09-11T16:17:27.134Z,98401.00
2022-09-11T16:20:01.794Z,98416.00
2022-09-11T16:22:40.472Z,98396.00
2022-09-11T16:25:19.643Z,98396.00
2022-09-11T16:27:58.925Z,98387.00
2022-09-11T16:30:44.416Z,98400.00
2022-09-11T16:33:23.073Z,98407.00
2022-09-11T16:36:03.654Z,98398.00
2022-09-11T16:38:42.955Z,98395.00
2022-09-11T16:41:20.220Z,98407.00
2022-09-11T16:43:55.571Z,98408.00
2022-09-11T16:46:31.114Z,98403.00
2022-09-11T16:49:06.685Z,98418.00
2022-09-11T16:51:42.295Z,98390.00
2022-09-11T16:54:19.266Z,98395.00
2022-09-11T16:56:54.160Z,98406.00
2022-09-11T16:59:29.151Z,98390.00
2022-09-11T17:02:03.800Z,98406.00
2022-09-11T17:05:12.679Z,98394.00
2022-09-11T17:07:48.295Z,98392.00
2022-09-11T17:10:24.815Z,98396.00
2022-09-11T17:13:00.825Z,98378.00
2022-09-11T17:15:36.300Z,98393.00
2022-09-11T17:18:10.654Z,98368.00
2022-09-11T17:20:45.342Z,98392.00
2022-09-11T17:23:20.759Z,98395.00
2022-09-11T17:25:57.716Z,98385.00
2022-09-11T17:29:09.866Z,98387.00
2022-09-11T17:35:01.146Z,98376.00
2022-09-11T17:37:36.879Z,98394.00
2022-09-11T17:40:14.419Z,98394.00
2022-09-11T17:43:07.912Z,98395.00
2022-09-11T17:45:43.770Z,98387.00
2022-09-11T17:48:38.106Z,98388.00
2022-09-11T17:51:22.135Z,98389.00
2022-09-11T17:54:06.825Z,98393.00
2022-09-11T17:57:02.030Z,98409.00
2022-09-11T17:59:53.536Z,98398.00
2022-09-11T18:02:45.453Z,98395.00
2022-09-11T18:05:24.641Z,98398.00
2022-09-11T18:08:02.491Z,98404.00
2022-09-11T18:10:50.930Z,98415.00
2022-09-11T18:13:25.905Z,98414.00
2022-09-11T18:16:12.041Z,98416.00
2022-09-11T18:18:56.234Z,98417.00
2022-09-11T18:21:32.100Z,98391.00
2022-09-11T18:24:22.663Z,98407.00
2022-09-11T18:27:00.923Z,98408.00
2022-09-11T18:29:39.890Z,98397.00
2022-09-11T18:32:24.139Z,98409.00
2022-09-11T18:35:00.103Z,98416.00
2022-09-11T18:37:34.817Z,98411.00
2022-09-11T18:40:10.351Z,98399.00
2022-09-11T18:46:13.917Z,98413.00
2022-09-11T18:52:07.599Z,98416.00
2022-09-11T18:54:49.336Z,98414.00
2022-09-11T18:57:25.238Z,98409.00
2022-09-11T19:00:07.531Z,98391.00
2022-09-11T19:03:06.767Z,98424.00
2022-09-11T19:05:50.684Z,98417.00
2022-09-11T19:08:41.082Z,98395.00
2022-09-11T19:11:19.947Z,98391.00
2022-09-11T19:14:08.722Z,98410.00
2022-09-11T19:16:49.642Z,98419.00
2022-09-11T19:19:32.595Z,98405.00
2022-09-11T19:22:12.688Z,98406.00
2022-09-11T19:25:00.196Z,98425.00
2022-09-11T19:27:37.600Z,98430.00
2022-09-11T19:30:43.113Z,98408.00
2022-09-11T19:33:31.879Z,98415.00
2022-09-11T19:36:27.577Z,98426.00
2022-09-11T19:39:21.638Z,98424.00
2022-09-11T19:42:19.177Z,98411.00
2022-09-11T19:45:06.965Z,98410.00
2022-09-11T19:47:56.076Z,98427.00
2022-09-11T19:50:49.460Z,98420.00
2022-09-11T20:00:06.505Z,98397.00
2022-09-11T20:02:52.055Z,98419.00
2022-09-11T20:05:48.330Z,98415.00
2022-09-11T20:08:25.735Z,98410.00
2022-09-11T20:11:08.200Z,98416.00
2022-09-11T20:13:44.340Z,98417.00
2022-09-11T20:16:25.830Z,98427.00
2022-09-11T20:19:06.799Z,98428.00
2022-09-11T20:21:43.223Z,98426.00
2022-09-11T20:24:18.240Z,98431.00
2022-09-11T20:26:56.230Z,98412.00
2022-09-11T20:29:40.122Z,98434.00
2022-09-11T20:32:17.076Z,98419.00
2022-09-11T20:34:55.757Z,98425.00
2022-09-11T20:37:30.515Z,98427.00
2022-09-11T20:40:08.226Z,98421.00
2022-09-11T20:42:45.091Z,98421.00
2022-09-11T20:45:24.455Z,98415.00
2022-09-11T20:48:02.777Z,98408.00
2022-09-11T20:50:38.008Z,98405.00
2022-09-11T20:53:14.375Z,98401.00
2022-09-11T20:55:50.100Z,98404.00
2022-09-11T20:58:27.401Z,98389.00
2022-09-11T21:01:03.205Z,98388.00
2022-09-11T21:03:38.620Z,98394.00
2022-09-11T21:06:14.389Z,98392.00
2022-09-11T21:08:57.092Z,98399.00
2022-09-11T21:11:37.720Z,98394.00
2022-09-11T21:14:19.272Z,98408.00
2022-09-11T21:16:55.971Z,98401.00
2022-09-11T21:19:37.517Z,98398.00
2022-09-11T21:22:12.523Z,98392.00
2022-09-11T21:24:47.101Z,98405.00
2022-09-11T21:27:23.402Z,98387.00
2022-09-11T21:29:59.755Z,98389.00
2022-09-11T21:32:36.187Z,98387.00
2022-09-11T21:35:11.297Z,98386.00
2022-09-11T21:37:47.244Z,98398.00
2022-09-11T21:40:22.016Z,98389.00
2022-09-11T21:42:57.181Z,98388.00
2022-09-11T21:45:33.512Z,98400.00
2022-09-11T21:48:09.276Z,98404.00
2022-09-11T21:50:48.554Z,98409.00
2022-09-11T21:53:23.392Z,98379.00
2022-09-11T21:56:00.381Z,98405.00
2022-09-11T21:58:35.696Z,98404.00
2022-09-11T22:01:18.913Z,98395.00
2022-09-11T22:03:54.608Z,98367.00
2022-09-11T22:06:30.052Z,98385.00
2022-09-11T22:09:07.252Z,98376.00
2022-09-11T22:11:45.921Z,98393.00
2022-09-11T22:14:22.136Z,98404.00
2022-09-11T22:17:02.454Z,98374.00
2022-09-11T22:19:37.593Z,98374.00
2022-09-11T22:22:12.351Z,98390.00
2022-09-11T22:24:51.579Z,98395.00
2022-09-11T22:27:38.574Z,98391.00
2022-09-11T22:30:15.867Z,98391.00
2022-09-11T22:33:10.923Z,98390.00
2022-09-11T22:35:49.352Z,98390.00
2022-09-11T22:38:24.305Z,98382.00
2022-09-11T22:41:13.563Z,98372.00
2022-09-11T22:43:51.690Z,98380.00
2022-09-11T22:46:45.739Z,98376.00
2022-09-11T22:49:26.420Z,98387.00
2022-09-11T22:52:02.923Z,98383.00
2022-09-11T22:54:48.080Z,98374.00
2022-09-11T22:57:22.823Z,98386.00
2022-09-11T22:59:57.549Z,98371.00
2022-09-11T23:02:31.945Z,98386.00
2022-09-11T23:05:27.946Z,98376.00
2022-09-11T23:08:02.823Z,98357.00
2022-09-11T23:10:48.920Z,98375.00
2022-09-11T23:13:24.463Z,98370.00
2022-09-11T23:15:59.712Z,98370.00
2022-09-11T23:18:34.804Z,98361.00
2022-09-11T23:21:16.512Z,98369.00
2022-09-11T23:23:56.575Z,98366.00
2022-09-11T23:26:32.010Z,98367.00
2022-09-11T23:29:06.868Z,98371.00
2022-09-11T23:31:42.808Z,98361.00
2022-09-11T23:34:19.277Z,98344.00
2022-09-11T23:36:56.060Z,98367.00
2022-09-11T23:39:37.249Z,98364.00
2022-09-11T23:42:13.897Z,98367.00
2022-09-11T23:45:08.074Z,98340.00
2022-09-11T23:47:45.376Z,98344.00
2022-09-11T23:50:24.505Z,98354.00
2022-09-11T23:53:01.176Z,98359.00
2022-09-11T23:55:41.743Z,98350.00
2022-09-11T23:58:17.920Z,98349.00
